createdAt,value
2022-12-06T00:01:34.850Z,10.03
2022-12-06T00:04:02.698Z,9.00
2022-12-06T00:06:30.623Z,9.53
2022-12-06T00:08:57.675Z,9.77
2022-12-06T00:11:28.371Z,8.93
2022-12-06T00:13:56.080Z,9.03
2022-12-06T00:16:23.268Z,9.67
2022-12-06T00:18:49.891Z,9.00
2022-12-06T00:21:18.348Z,9.47
2022-12-06T00:23:46.083Z,9.20
2022-12-06T00:26:13.037Z,8.63
2022-12-06T00:28:39.905Z,8.57
2022-12-06T00:31:08.141Z,9.37
2022-12-06T00:33:35.065Z,8.83
2022-12-06T00:36:03.349Z,8.50
2022-12-06T00:38:29.960Z,8.70
2022-12-06T00:41:04.920Z,8.40
2022-12-06T00:43:31.866Z,8.50
2022-12-06T00:45:58.640Z,8.13
2022-12-06T00:48:25.156Z,8.43
2022-12-06T00:50:51.682Z,8.87
2022-12-06T00:53:18.369Z,9.97
2022-12-06T00:55:45.354Z,8.80
2022-12-06T00:58:12.222Z,9.17
2022-12-06T01:00:38.944Z,9.90
2022-12-06T01:03:05.519Z,9.93
2022-12-06T01:05:32.241Z,8.40
2022-12-06T01:07:58.876Z,9.57
2022-12-06T01:10:25.493Z,9.40
2022-12-06T01:12:51.987Z,9.47
2022-12-06T01:15:18.479Z,9.93
2022-12-06T01:17:45.271Z,10.37
2022-12-06T01:20:11.775Z,9.83
2022-12-06T01:22:38.302Z,9.80
2022-12-06T01:25:04.991Z,10.20
2022-12-06T01:27:31.493Z,9.63
2022-12-06T01:29:58.389Z,10.27
2022-12-06T01:32:25.052Z,10.23
2022-12-06T01:34:52.793Z,12.63
2022-12-06T01:37:19.397Z,11.43
2022-12-06T01:39:45.970Z,10.27
2022-12-06T01:42:13.306Z,10.27
2022-12-06T01:44:47.338Z,10.60
2022-12-06T01:47:16.707Z,11.30
2022-12-06T01:49:44.591Z,13.83
2022-12-06T01:52:13.229Z,10.83
2022-12-06T01:54:40.388Z,10.83
2022-12-06T01:57:08.904Z,10.77
2022-12-06T01:59:35.809Z,10.03
2022-12-06T02:02:02.493Z,10.50
2022-12-06T02:04:30.620Z,11.67
2022-12-06T02:06:57.570Z,9.37
2022-12-06T02:09:24.555Z,10.73
2022-12-06T02:11:51.031Z,11.00
2022-12-06T02:14:19.245Z,11.43
2022-12-06T02:16:45.796Z,11.70
2022-12-06T02:19:18.479Z,11.20
2022-12-06T02:21:47.822Z,12.10
2022-12-06T02:24:33.047Z,11.90
2022-12-06T02:27:05.457Z,11.30
2022-12-06T02:29:48.201Z,11.50
2022-12-06T02:32:33.703Z,11.67
2022-12-06T02:35:03.480Z,11.50
2022-12-06T02:37:33.149Z,11.80
2022-12-06T02:40:03.373Z,12.37
2022-12-06T02:42:33.874Z,12.87
2022-12-06T02:45:02.889Z,13.43
2022-12-06T02:47:33.768Z,11.43
2022-12-06T02:50:01.434Z,12.83
2022-12-06T02:52:28.734Z,12.37
2022-12-06T02:54:56.844Z,11.53
2022-12-06T02:57:41.499Z,12.50
2022-12-06T03:00:26.457Z,12.37
2022-12-06T03:02:58.347Z,12.13
2022-12-06T03:05:27.953Z,12.70
2022-12-06T03:07:54.911Z,12.40
2022-12-06T03:10:27.530Z,11.73
2022-12-06T03:12:56.855Z,12.33
2022-12-06T03:15:29.649Z,12.40
2022-12-06T03:18:01.149Z,12.13
2022-12-06T03:20:31.285Z,12.27
2022-12-06T03:23:07.062Z,12.70
2022-12-06T03:25:35.525Z,11.63
2022-12-06T03:28:02.893Z,11.63
2022-12-06T03:30:31.396Z,12.20
2022-12-06T03:32:58.183Z,11.60
2022-12-06T03:35:26.984Z,12.13
2022-12-06T03:37:56.966Z,13.33
2022-12-06T03:40:31.598Z,11.47
2022-12-06T03:42:58.721Z,11.87
2022-12-06T03:45:28.366Z,11.13
2022-12-06T03:47:57.668Z,13.03
2022-12-06T03:50:38.263Z,12.33
2022-12-06T03:53:04.941Z,12.70
2022-12-06T03:55:31.472Z,12.03
2022-12-06T03:57:58.104Z,11.47
2022-12-06T04:00:24.616Z,12.73
2022-12-06T04:02:51.173Z,13.13
2022-12-06T04:05:17.737Z,11.73
2022-12-06T04:07:44.331Z,12.37
2022-12-06T04:10:11.023Z,11.83
2022-12-06T04:12:56.009Z,12.70
2022-12-06T04:15:23.085Z,11.63
2022-12-06T04:18:08.428Z,12.63
2022-12-06T04:20:53.622Z,12.00
2022-12-06T04:23:20.154Z,12.53
2022-12-06T04:25:46.900Z,12.20
2022-12-06T04:28:31.823Z,12.27
2022-12-06T04:31:21.688Z,15.67
2022-12-06T04:34:07.399Z,12.47
2022-12-06T04:36:52.507Z,12.27
2022-12-06T04:39:21.150Z,11.53
2022-12-06T04:42:06.745Z,12.13
2022-12-06T04:44:33.360Z,12.03
2022-12-06T04:47:01.111Z,13.47
2022-12-06T04:49:27.736Z,12.97
2022-12-06T04:51:54.994Z,11.37
2022-12-06T04:54:21.713Z,12.07
2022-12-06T04:56:48.215Z,11.27
2022-12-06T04:59:14.814Z,11.83
2022-12-06T05:01:41.305Z,11.10
2022-12-06T05:04:07.875Z,12.40
2022-12-06T05:06:34.448Z,12.00
2022-12-06T05:09:00.948Z,11.37
2022-12-06T05:11:27.528Z,11.57
2022-12-06T05:13:54.047Z,12.17
2022-12-06T05:16:20.643Z,11.77
2022-12-06T05:18:47.151Z,12.43
2022-12-06T05:21:15.039Z,11.17
2022-12-06T05:23:41.686Z,11.67
2022-12-06T05:26:10.332Z,10.77
2022-12-06T05:28:37.075Z,11.73
2022-12-06T05:31:03.675Z,11.83
2022-12-06T05:33:30.442Z,12.63
2022-12-06T05:35:57.006Z,11.80
2022-12-06T05:38:23.735Z,11.70
2022-12-06T05:40:50.279Z,12.93
2022-12-06T05:43:16.974Z,12.93
2022-12-06T05:45:43.816Z,11.67
2022-12-06T05:48:10.404Z,11.90
2022-12-06T05:50:37.060Z,12.10
2022-12-06T05:53:03.566Z,11.63
2022-12-06T05:55:30.301Z,11.17
2022-12-06T05:57:56.828Z,12.30
2022-12-06T06:00:23.470Z,11.30
2022-12-06T06:02:50.084Z,11.93
2022-12-06T06:05:16.860Z,11.70
2022-12-06T06:07:43.437Z,11.87
2022-12-06T06:10:10.901Z,11.30
2022-12-06T06:12:37.694Z,11.13
2022-12-06T06:15:07.127Z,11.13
2022-12-06T06:17:36.487Z,12.17
2022-12-06T06:20:07.283Z,11.13
2022-12-06T06:22:34.725Z,14.07
2022-12-06T06:25:01.490Z,12.10
2022-12-06T06:27:28.581Z,11.83
2022-12-06T06:29:55.061Z,12.50
2022-12-06T06:32:21.613Z,11.83
2022-12-06T06:34:48.127Z,13.63
2022-12-06T06:37:14.642Z,11.57
2022-12-06T06:39:41.164Z,11.47
2022-12-06T06:42:07.744Z,10.73
2022-12-06T06:44:34.245Z,11.67
2022-12-06T06:47:00.753Z,12.47
2022-12-06T06:49:27.263Z,11.63
2022-12-06T06:51:53.716Z,13.47
2022-12-06T06:54:20.244Z,11.00
2022-12-06T06:56:46.757Z,11.53
2022-12-06T06:59:13.297Z,12.00
2022-12-06T07:01:39.924Z,12.43
2022-12-06T07:04:06.513Z,11.33
2022-12-06T07:06:33.019Z,12.70
2022-12-06T07:08:59.569Z,14.23
2022-12-06T07:11:26.068Z,13.90
2022-12-06T07:13:52.941Z,13.13
2022-12-06T07:16:19.617Z,14.17
2022-12-06T07:18:47.594Z,14.90
2022-12-06T07:21:14.788Z,12.90
2022-12-06T07:23:41.526Z,13.57
2022-12-06T07:26:10.405Z,12.23
2022-12-06T07:28:37.859Z,11.70
2022-12-06T07:31:18.049Z,11.30
2022-12-06T07:33:45.353Z,12.13
2022-12-06T07:36:13.546Z,12.70
2022-12-06T07:38:40.549Z,11.67
2022-12-06T07:41:28.559Z,14.70
2022-12-06T07:44:14.304Z,14.87
2022-12-06T07:46:41.200Z,16.67
2022-12-06T07:49:07.800Z,15.73
2022-12-06T07:51:34.813Z,14.17
2022-12-06T07:54:01.299Z,15.00
2022-12-06T07:56:27.973Z,15.03
2022-12-06T07:58:54.845Z,14.37
2022-12-06T08:01:23.431Z,13.33
2022-12-06T08:03:50.542Z,14.70
2022-12-06T08:06:17.195Z,13.97
2022-12-06T08:08:43.702Z,14.30
2022-12-06T08:11:10.279Z,14.80
2022-12-06T08:13:37.106Z,13.60
2022-12-06T08:16:07.450Z,15.40
2022-12-06T08:18:34.130Z,16.87
2022-12-06T08:21:00.680Z,16.07
2022-12-06T08:23:33.621Z,17.23
2022-12-06T08:26:01.671Z,17.43
2022-12-06T08:28:28.939Z,15.10
2022-12-06T08:31:01.242Z,16.37
2022-12-06T08:33:29.371Z,13.67
2022-12-06T08:35:55.845Z,16.03
2022-12-06T08:38:22.361Z,14.17
2022-12-06T08:40:48.866Z,16.07
2022-12-06T08:43:15.436Z,14.47
2022-12-06T08:45:41.987Z,12.60
2022-12-06T08:48:08.722Z,14.93
2022-12-06T08:50:35.274Z,15.23
2022-12-06T08:53:01.782Z,15.23
2022-12-06T08:55:28.307Z,13.63
2022-12-06T08:57:54.785Z,13.60
2022-12-06T09:00:21.365Z,14.67
2022-12-06T09:02:47.899Z,15.10
2022-12-06T09:05:14.460Z,13.70
2022-12-06T09:07:40.950Z,14.37
2022-12-06T09:10:07.866Z,12.67
2022-12-06T09:12:34.359Z,14.70
2022-12-06T09:15:00.914Z,18.13
2022-12-06T09:17:27.432Z,14.57
2022-12-06T09:19:53.915Z,14.60
2022-12-06T09:22:20.430Z,15.70
2022-12-06T09:24:47.013Z,13.97
2022-12-06T09:27:13.562Z,15.77
2022-12-06T09:29:40.989Z,15.67
2022-12-06T09:32:07.679Z,14.63
2022-12-06T09:34:34.153Z,16.83
2022-12-06T09:37:11.833Z,13.37
2022-12-06T09:39:40.458Z,15.40
2022-12-06T09:42:17.285Z,13.23
2022-12-06T09:44:43.755Z,16.63
2022-12-06T09:47:16.047Z,13.60
2022-12-06T09:49:54.831Z,13.20
2022-12-06T09:52:21.441Z,13.83
2022-12-06T09:55:00.600Z,15.10
2022-12-06T09:57:30.477Z,15.90
2022-12-06T10:00:05.160Z,13.97
2022-12-06T10:02:49.888Z,14.33
2022-12-06T10:05:24.469Z,14.70
2022-12-06T10:08:03.031Z,14.50
2022-12-06T10:10:32.439Z,16.53
2022-12-06T10:13:17.117Z,17.60
2022-12-06T10:16:07.035Z,19.23
2022-12-06T10:18:53.814Z,18.60
2022-12-06T10:21:39.124Z,17.53
2022-12-06T10:24:11.216Z,15.40
2022-12-06T10:26:54.184Z,16.20
2022-12-06T10:29:27.377Z,19.40
2022-12-06T10:31:56.304Z,16.37
2022-12-06T10:34:29.063Z,17.83
2022-12-06T10:37:01.381Z,15.57
2022-12-06T10:39:32.618Z,14.23
2022-12-06T10:42:04.841Z,19.23
2022-12-06T10:44:38.465Z,15.03
2022-12-06T10:47:07.389Z,16.43
2022-12-06T10:49:52.587Z,16.23
2022-12-06T10:52:37.155Z,16.47
2022-12-06T10:55:09.532Z,16.73
2022-12-06T10:57:48.099Z,17.33
2022-12-06T11:00:15.745Z,18.37
2022-12-06T11:02:42.793Z,19.60
2022-12-06T11:05:21.523Z,16.73
2022-12-06T11:07:50.110Z,17.13
2022-12-06T11:10:21.985Z,16.77
2022-12-06T11:12:49.061Z,18.77
2022-12-06T11:15:15.608Z,16.93
2022-12-06T11:18:02.810Z,15.43
2022-12-06T11:20:41.606Z,16.90
2022-12-06T11:23:27.097Z,17.67
2022-12-06T11:26:11.771Z,15.47
2022-12-06T11:28:41.826Z,12.27
2022-12-06T11:31:18.645Z,13.83
2022-12-06T11:33:46.402Z,13.53
2022-12-06T11:36:12.943Z,14.00
2022-12-06T11:38:41.058Z,13.97
2022-12-06T11:41:10.133Z,13.53
2022-12-06T11:43:36.804Z,13.73
2022-12-06T11:46:04.339Z,12.00
2022-12-06T11:48:32.772Z,13.67
2022-12-06T11:50:59.390Z,10.53
2022-12-06T11:53:29.054Z,13.00
2022-12-06T11:56:03.963Z,12.67
2022-12-06T11:58:35.162Z,11.80
2022-12-06T12:01:03.552Z,10.70
2022-12-06T12:03:32.316Z,12.07
2022-12-06T12:06:17.703Z,10.60
2022-12-06T12:09:10.530Z,11.70
2022-12-06T12:11:40.053Z,9.70
2022-12-06T12:14:23.993Z,9.97
2022-12-06T12:16:53.699Z,11.00
2022-12-06T12:19:39.119Z,9.67
2022-12-06T12:22:24.129Z,11.10
2022-12-06T12:27:44.764Z,11.27
2022-12-06T12:30:23.621Z,11.63
2022-12-06T12:32:51.411Z,11.00
2022-12-06T12:35:28.076Z,9.87
2022-12-06T12:38:00.618Z,10.63
2022-12-06T12:40:27.112Z,12.80
2022-12-06T12:43:00.848Z,13.67
2022-12-06T12:45:27.811Z,11.50
2022-12-06T12:47:57.433Z,11.33
2022-12-06T12:50:24.019Z,14.87
2022-12-06T12:52:51.361Z,13.07
2022-12-06T12:55:28.888Z,12.93
2022-12-06T12:57:57.364Z,12.80
2022-12-06T13:00:35.035Z,13.47
2022-12-06T13:03:18.111Z,13.30
2022-12-06T13:05:54.009Z,12.30
2022-12-06T13:08:22.221Z,11.70
2022-12-06T13:10:54.083Z,10.97
2022-12-06T13:13:26.395Z,13.70
2022-12-06T13:15:54.495Z,11.07
2022-12-06T13:18:23.131Z,10.97
2022-12-06T13:20:50.265Z,12.60
2022-12-06T13:23:20.978Z,12.77
2022-12-06T13:25:50.301Z,13.60
2022-12-06T13:28:22.509Z,11.63
2022-12-06T13:30:51.649Z,11.10
2022-12-06T13:33:21.433Z,9.37
2022-12-06T13:36:08.354Z,10.67
2022-12-06T13:38:36.018Z,10.17
2022-12-06T13:41:06.587Z,9.87
2022-12-06T13:43:38.052Z,10.37
2022-12-06T13:46:09.046Z,9.13
2022-12-06T13:48:37.724Z,9.90
2022-12-06T13:51:24.156Z,9.53
2022-12-06T13:54:02.891Z,9.63
2022-12-06T13:56:36.566Z,9.00
2022-12-06T13:59:12.040Z,10.17
2022-12-06T14:01:48.755Z,10.97
2022-12-06T14:06:53.976Z,11.27
2022-12-06T14:09:20.917Z,9.40
2022-12-06T14:11:47.474Z,9.53
2022-12-06T14:14:18.213Z,8.83
2022-12-06T14:16:46.468Z,8.67
2022-12-06T14:19:42.199Z,8.70
2022-12-06T14:22:22.577Z,8.63
2022-12-06T14:25:18.562Z,8.33
2022-12-06T14:27:46.826Z,11.13
2022-12-06T14:30:13.319Z,9.10
2022-12-06T14:32:41.704Z,8.20
2022-12-06T14:35:18.261Z,9.03
2022-12-06T14:37:58.575Z,8.37
2022-12-06T14:40:45.129Z,10.13
2022-12-06T14:43:15.214Z,8.83
2022-12-06T14:45:42.857Z,8.33
2022-12-06T14:48:10.628Z,8.80
2022-12-06T14:51:03.335Z,9.57
2022-12-06T14:53:34.194Z,17.17
2022-12-06T14:56:07.944Z,9.27
2022-12-06T14:58:36.009Z,12.83
2022-12-06T15:01:06.848Z,9.90
2022-12-06T15:03:37.017Z,14.17
2022-12-06T15:06:21.285Z,10.07
2022-12-06T15:08:55.318Z,9.30
2022-12-06T15:11:40.437Z,9.20
2022-12-06T15:14:11.284Z,8.90
2022-12-06T15:16:37.805Z,10.40
2022-12-06T15:19:04.429Z,10.23
2022-12-06T15:21:30.896Z,9.63
2022-12-06T15:23:57.396Z,13.13
2022-12-06T15:26:24.711Z,10.30
2022-12-06T15:28:51.620Z,9.93
2022-12-06T15:31:20.403Z,10.43
2022-12-06T15:33:47.520Z,11.27
2022-12-06T15:36:18.377Z,10.23
2022-12-06T15:38:45.268Z,10.40
2022-12-06T15:41:22.592Z,14.33
2022-12-06T15:43:49.474Z,10.63
2022-12-06T15:46:17.597Z,11.10
2022-12-06T15:48:44.815Z,11.90
2022-12-06T15:51:20.318Z,11.90
2022-12-06T15:53:48.678Z,10.97
2022-12-06T15:56:16.284Z,10.77
2022-12-06T15:58:43.091Z,10.27
2022-12-06T16:01:31.322Z,11.27
2022-12-06T16:03:57.988Z,12.37
2022-12-06T16:06:25.511Z,10.87
2022-12-06T16:08:52.433Z,11.50
2022-12-06T16:11:20.569Z,15.93
2022-12-06T16:13:47.246Z,10.00
2022-12-06T16:16:16.363Z,10.90
2022-12-06T16:18:43.158Z,9.97
2022-12-06T16:21:18.130Z,10.33
2022-12-06T16:24:16.475Z,11.73
2022-12-06T16:26:45.004Z,16.10
2022-12-06T16:29:13.358Z,12.53
2022-12-06T16:31:41.266Z,18.87
2022-12-06T16:34:07.931Z,13.73
2022-12-06T16:36:34.925Z,10.20
2022-12-06T16:39:03.659Z,12.30
2022-12-06T16:41:32.963Z,11.60
2022-12-06T16:43:59.989Z,10.67
2022-12-06T16:46:45.694Z,11.50
2022-12-06T16:49:44.785Z,10.57
2022-12-06T16:52:01.968Z,10.90
2022-12-06T16:54:28.490Z,10.57
2022-12-06T16:56:54.972Z,12.20
2022-12-06T16:59:21.492Z,10.67
2022-12-06T17:01:52.313Z,10.30
2022-12-06T17:04:19.024Z,11.10
2022-12-06T17:06:45.891Z,11.03
2022-12-06T17:09:12.821Z,10.07
2022-12-06T17:11:58.031Z,8.80
2022-12-06T17:14:27.540Z,9.50
2022-12-06T17:16:54.967Z,10.43
2022-12-06T17:19:22.989Z,10.73
2022-12-06T17:21:50.237Z,9.60
2022-12-06T17:24:17.089Z,8.97
2022-12-06T17:26:43.627Z,10.10
2022-12-06T17:29:10.109Z,9.37
2022-12-06T17:31:37.554Z,9.53
2022-12-06T17:34:04.804Z,9.53
2022-12-06T17:36:31.484Z,9.23
2022-12-06T17:38:58.032Z,8.80
2022-12-06T17:41:48.542Z,8.73
2022-12-06T17:44:17.982Z,9.70
2022-12-06T17:46:44.545Z,7.87
2022-12-06T17:49:13.428Z,8.20
2022-12-06T17:51:39.943Z,8.50
2022-12-06T17:54:09.379Z,8.77
2022-12-06T17:56:38.096Z,8.40
2022-12-06T17:59:11.179Z,8.33
2022-12-06T18:01:58.506Z,8.30
2022-12-06T18:04:24.513Z,8.10
2022-12-06T18:06:51.017Z,8.50
2022-12-06T18:09:17.599Z,8.40
2022-12-06T18:11:44.258Z,7.97
2022-12-06T18:14:11.807Z,7.50
2022-12-06T18:16:39.294Z,7.50
2022-12-06T18:19:11.054Z,8.10
2022-12-06T18:21:38.410Z,8.47
2022-12-06T18:24:22.522Z,7.60
2022-12-06T18:26:50.601Z,7.90
2022-12-06T18:29:21.093Z,8.37
2022-12-06T18:31:47.927Z,8.17
2022-12-06T18:34:14.901Z,8.00
2022-12-06T18:36:41.581Z,6.80
2022-12-06T18:39:14.795Z,7.63
2022-12-06T18:41:42.890Z,7.77
2022-12-06T18:44:10.484Z,7.47
2022-12-06T18:46:38.913Z,7.50
2022-12-06T18:49:06.609Z,7.77
2022-12-06T18:51:34.484Z,8.27
2022-12-06T18:54:03.123Z,6.77
2022-12-06T18:56:30.374Z,8.20
2022-12-06T18:59:01.014Z,6.83
2022-12-06T19:01:37.531Z,7.03
2022-12-06T19:04:05.133Z,7.40
2022-12-06T19:06:32.901Z,6.03
2022-12-06T19:09:04.939Z,6.63
2022-12-06T19:11:31.992Z,7.67
2022-12-06T19:14:00.045Z,7.10
2022-12-06T19:16:29.241Z,5.90
2022-12-06T19:18:56.911Z,5.70
2022-12-06T19:21:24.200Z,4.80
2022-12-06T19:23:54.723Z,5.40
2022-12-06T19:26:21.428Z,5.17
2022-12-06T19:28:48.204Z,5.00
2022-12-06T19:31:14.925Z,4.83
2022-12-06T19:33:43.396Z,4.37
2022-12-06T19:36:20.412Z,4.97
2022-12-06T19:38:46.958Z,4.67
2022-12-06T19:41:14.938Z,4.43
2022-12-06T19:44:00.792Z,4.40
2022-12-06T19:46:27.930Z,4.43
2022-12-06T19:48:58.807Z,5.27
2022-12-06T19:51:29.119Z,3.80
2022-12-06T19:53:58.130Z,4.13
2022-12-06T19:56:25.419Z,4.82
2022-12-06T19:58:51.976Z,4.20
2022-12-06T20:01:30.076Z,4.17
2022-12-06T20:03:57.275Z,3.60
2022-12-06T20:06:26.373Z,3.73
2022-12-06T20:08:54.461Z,3.00
2022-12-06T20:11:40.568Z,2.97
2022-12-06T20:14:08.495Z,3.93
2022-12-06T20:16:35.664Z,4.67
2022-12-06T20:19:02.717Z,3.77
2022-12-06T20:21:29.287Z,3.33
2022-12-06T20:23:58.355Z,3.40
2022-12-06T20:26:25.135Z,3.53
2022-12-06T20:28:51.648Z,11.07
2022-12-06T20:31:19.787Z,6.90
2022-12-06T20:33:47.014Z,3.40
2022-12-06T20:36:14.826Z,3.50
2022-12-06T20:38:41.506Z,3.23
2022-12-06T20:41:09.015Z,2.63
2022-12-06T20:43:35.998Z,2.47
2022-12-06T20:46:14.782Z,2.50
2022-12-06T20:48:42.875Z,2.17
2022-12-06T20:51:11.014Z,2.03
2022-12-06T20:53:37.457Z,2.03
2022-12-06T20:56:05.070Z,1.90
2022-12-06T20:58:31.560Z,1.80
2022-12-06T21:00:58.610Z,1.33
2022-12-06T21:03:25.505Z,1.90
2022-12-06T21:06:01.969Z,2.07
2022-12-06T21:08:29.001Z,1.67
2022-12-06T21:11:21.638Z,1.60
2022-12-06T21:13:42.445Z,1.67
2022-12-06T21:16:19.134Z,1.57
2022-12-06T21:18:46.158Z,1.70
2022-12-06T21:21:20.708Z,1.40
2022-12-06T21:23:47.252Z,1.60
2022-12-06T21:26:13.771Z,1.70
2022-12-06T21:28:40.326Z,1.60
2022-12-06T21:31:06.894Z,1.37
2022-12-06T21:33:33.425Z,1.50
2022-12-06T21:36:03.615Z,1.53
2022-12-06T21:38:30.445Z,1.23
2022-12-06T21:41:01.545Z,1.60
2022-12-06T21:43:28.285Z,1.70
2022-12-06T21:45:54.896Z,1.53
2022-12-06T21:48:21.501Z,1.37
2022-12-06T21:50:47.966Z,2.60
2022-12-06T21:53:14.481Z,1.43
2022-12-06T21:55:41.164Z,2.77
2022-12-06T21:58:07.811Z,2.10
2022-12-06T22:00:34.353Z,1.67
2022-12-06T22:03:01.061Z,2.10
2022-12-06T22:05:27.608Z,1.90
2022-12-06T22:07:54.165Z,2.03
2022-12-06T22:10:20.723Z,1.90
2022-12-06T22:12:47.666Z,1.80
2022-12-06T22:15:14.208Z,1.70
2022-12-06T22:17:40.719Z,1.70
2022-12-06T22:20:07.536Z,1.83
2022-12-06T22:22:34.009Z,1.80
2022-12-06T22:25:00.901Z,1.73
2022-12-06T22:27:27.627Z,1.60
2022-12-06T22:29:54.391Z,1.70
2022-12-06T22:32:20.857Z,1.97
2022-12-06T22:34:47.441Z,1.60
2022-12-06T22:37:13.943Z,1.70
2022-12-06T22:39:40.419Z,1.60
2022-12-06T22:42:07.093Z,1.53
2022-12-06T22:44:33.687Z,2.00
2022-12-06T22:47:00.232Z,1.97
2022-12-06T22:49:26.834Z,2.17
2022-12-06T22:51:53.343Z,2.30
2022-12-06T22:54:19.884Z,2.20
2022-12-06T22:56:49.364Z,2.20
2022-12-06T22:59:17.058Z,2.70
2022-12-06T23:01:43.686Z,2.63
2022-12-06T23:04:10.559Z,3.00
2022-12-06T23:06:38.922Z,3.07
2022-12-06T23:09:06.181Z,2.73
2022-12-06T23:11:33.776Z,2.80
2022-12-06T23:14:00.381Z,3.10
2022-12-06T23:16:28.177Z,2.70
2022-12-06T23:18:54.902Z,2.80
2022-12-06T23:21:21.420Z,2.97
2022-12-06T23:23:49.321Z,2.63
2022-12-06T23:26:26.333Z,4.50
2022-12-06T23:28:52.808Z,3.00
2022-12-06T23:31:20.662Z,3.33
2022-12-06T23:33:47.786Z,2.90
2022-12-06T23:36:15.730Z,3.27
2022-12-06T23:38:42.673Z,3.63
2022-12-06T23:41:10.654Z,3.03
2022-12-06T23:43:37.533Z,3.60
2022-12-06T23:46:07.639Z,3.03
2022-12-06T23:48:34.965Z,3.47
2022-12-06T23:51:02.133Z,3.17
2022-12-06T23:53:29.128Z,3.27
2022-12-06T23:56:03.598Z,4.20
2022-12-06T23:58:30.321Z,3.77
